Time;durP1;ratioP1;P1;durP2;ratioP2;P2;SDS_P1;SDS_P2;PMS_P1;PMS_P2;Temp;Humidity;BMP_temperature;BMP_pressure;BME280_temperature;BME280_humidity;BME280_pressure;Samples;Min_cycle;Max_cycle;Signal;HPM_P1;HPM_P2
2021/12/18 00:02:16;;;;;;;1.37;0.85;;;;;;;2.71;71.29;100615.55;1617324;88;21047;-64
2021/12/18 00:04:46;;;;;;;2.00;1.00;;;;;;;2.69;71.04;100611.27;1619214;87;21154;-64
2021/12/18 00:07:16;;;;;;;3.80;1.15;;;;;;;2.67;70.70;100613.27;1617223;89;21062;-64
2021/12/18 00:09:47;;;;;;;1.52;0.90;;;;;;;2.66;71.02;100610.20;1681852;84;21135;-64
2021/12/18 00:12:17;;;;;;;2.72;1.20;;;;;;;2.67;71.10;100609.20;1704693;84;21021;-62
2021/12/18 00:14:46;;;;;;;2.22;1.00;;;;;;;2.67;71.01;100612.77;1692035;84;21013;-64
2021/12/18 00:17:15;;;;;;;1.90;1.00;;;;;;;2.67;70.82;100619.53;1693372;84;21054;-63
2021/12/18 00:19:46;;;;;;;1.90;0.88;;;;;;;2.65;70.83;100627.43;1644851;87;21050;-62
2021/12/18 00:22:14;;;;;;;1.47;0.90;;;;;;;2.63;70.99;100620.81;1691805;85;21078;-62
2021/12/18 00:24:43;;;;;;;2.15;1.10;;;;;;;2.64;71.11;100629.28;1692340;85;21018;-64
2021/12/18 00:27:13;;;;;;;1.65;0.78;;;;;;;2.63;71.33;100629.42;1704228;84;21147;-63
2021/12/18 00:29:42;;;;;;;2.40;1.05;;;;;;;2.58;71.25;100626.25;1690653;84;21478;-62
2021/12/18 00:32:11;;;;;;;2.72;1.00;;;;;;;2.59;71.38;100631.52;1690957;85;21037;-63
2021/12/18 00:34:40;;;;;;;1.80;0.85;;;;;;;2.56;71.51;100627.75;1683555;85;21112;-63
2021/12/18 00:37:10;;;;;;;6.78;1.47;;;;;;;2.58;71.81;100637.93;1692020;85;21033;-63
2021/12/18 00:39:48;;;;;;;2.33;1.10;;;;;;;2.56;71.98;100637.22;1690605;85;21492;-64
2021/12/18 00:44:52;;;;;;;2.22;0.90;;;;;;;2.59;72.01;100643.70;1625749;85;21064;-64
2021/12/18 00:47:23;;;;;;;3.02;0.98;;;;;;;2.58;72.04;100637.08;1691728;85;21620;-64
2021/12/18 00:49:52;;;;;;;2.60;1.47;;;;;;;2.57;72.23;100642.98;1682347;84;21049;-63
2021/12/18 00:52:21;;;;;;;2.60;1.00;;;;;;;2.56;72.47;100645.33;1670805;84;21126;-63
2021/12/18 00:54:52;;;;;;;4.45;1.17;;;;;;;2.55;72.33;100649.89;1670453;84;21168;-63
2021/12/18 00:57:21;;;;;;;3.85;1.00;;;;;;;2.54;72.58;100660.34;1670542;86;21091;-65
2021/12/18 00:59:52;;;;;;;2.67;1.20;;;;;;;2.55;72.59;100658.00;1670396;86;21066;-64
2021/12/18 01:02:20;;;;;;;3.58;1.00;;;;;;;2.55;72.60;100649.03;1665645;85;21227;-64
2021/12/18 01:04:50;;;;;;;1.92;1.20;;;;;;;2.56;72.77;100656.15;1667428;86;21085;-63
2021/12/18 01:07:21;;;;;;;2.02;1.05;;;;;;;2.59;72.64;100653.66;1670468;86;21583;-64
2021/12/18 01:10:09;;;;;;;2.12;1.00;;;;;;;2.59;72.58;100652.31;1670462;86;21034;-64
2021/12/18 01:12:38;;;;;;;5.92;1.10;;;;;;;2.59;72.50;100662.62;1669668;84;21533;-63
2021/12/18 01:15:14;;;;;;;1.52;0.80;;;;;;;2.57;72.27;100660.56;1670003;86;21062;-65
2021/12/18 01:22:51;;;;;;;1.32;0.80;;;;;;;2.48;72.52;100658.70;1670484;84;21593;-65
2021/12/18 01:25:21;;;;;;;1.75;1.02;;;;;;;2.48;72.67;100656.84;1665216;86;21562;-64
2021/12/18 01:27:51;;;;;;;1.75;0.80;;;;;;;2.50;72.73;100659.41;1676029;84;21148;-64
2021/12/18 01:30:20;;;;;;;2.20;0.90;;;;;;;2.50;72.74;100665.67;1643578;86;21116;-64
2021/12/18 01:32:50;;;;;;;1.72;0.85;;;;;;;2.48;72.50;100666.31;1643589;86;21044;-63
2021/12/18 01:35:21;;;;;;;1.85;1.00;;;;;;;2.50;72.60;100663.47;1643106;87;21518;-63
2021/12/18 01:37:50;;;;;;;1.50;1.00;;;;;;;2.51;72.64;100667.88;1643386;87;21056;-64
2021/12/18 01:40:24;;;;;;;4.95;1.22;;;;;;;2.50;72.72;100668.38;1643602;87;21506;-63
2021/12/18 01:43:43;;;;;;;4.20;1.00;;;;;;;2.51;72.73;100666.53;1638346;87;21110;-63
2021/12/18 01:45:37;;;;;;;3.25;1.35;;;;;;;2.48;72.67;100668.16;1615242;87;21121;-64
2021/12/18 01:53:34;;;;;;;4.00;1.12;;;;;;;2.43;72.45;100671.78;1675756;85;21094;-63
2021/12/18 01:56:04;;;;;;;2.05;1.10;;;;;;;2.40;72.63;100664.80;1675640;84;21136;-63
2021/12/18 01:58:34;;;;;;;2.10;1.00;;;;;;;2.41;72.76;100667.01;1675407;85;21110;-64
2021/12/18 02:01:04;;;;;;;1.90;1.12;;;;;;;2.40;72.79;100673.41;1677490;84;21085;-64
2021/12/18 02:03:32;;;;;;;2.47;1.07;;;;;;;2.39;72.60;100668.50;1693048;84;21532;-63
2021/12/18 02:06:04;;;;;;;2.10;1.10;;;;;;;2.40;72.36;100670.70;1692468;84;21049;-63
2021/12/18 02:08:34;;;;;;;2.98;1.25;;;;;;;2.41;72.26;100665.66;1692187;85;21504;-65
2021/12/18 02:11:14;;;;;;;2.20;1.20;;;;;;;2.39;72.20;100673.91;1692098;85;21638;-64
2021/12/18 02:21:56;;;;;;;2.93;1.10;;;;;;;2.43;71.88;100677.19;1692153;85;21531;-64
2021/12/18 02:24:28;;;;;;;1.65;1.02;;;;;;;2.39;71.40;100675.75;1692120;85;21481;-64
2021/12/18 02:26:57;;;;;;;2.12;0.80;;;;;;;2.37;71.36;100677.25;1704132;84;21147;-64
2021/12/18 02:29:29;;;;;;;1.82;0.90;;;;;;;2.37;71.21;100680.45;1649835;85;21110;-64
2021/12/18 02:31:57;;;;;;;1.98;1.00;;;;;;;2.38;70.72;100683.52;1647069;87;21098;-63
2021/12/18 02:34:30;;;;;;;1.60;0.93;;;;;;;2.37;70.89;100685.86;1622911;87;21519;-63
2021/12/18 02:37:05;;;;;;;1.50;0.70;;;;;;;2.39;71.05;100686.57;1675438;86;21227;-63
2021/12/18 02:42:18;;;;;;;1.65;0.80;;;;;;;2.35;70.22;100688.70;1675282;86;21045;-64
2021/12/18 02:44:45;;;;;;;1.72;0.75;;;;;;;2.34;70.15;100694.24;1675438;84;21093;-63
2021/12/18 02:47:14;;;;;;;1.80;0.85;;;;;;;2.29;70.22;100697.36;1679159;84;21466;-62
2021/12/18 02:49:46;;;;;;;1.57;0.90;;;;;;;2.29;70.24;100702.77;1704519;84;21061;-62
2021/12/18 02:52:18;;;;;;;1.40;0.80;;;;;;;2.29;70.06;100699.20;1692118;85;21034;-64
2021/12/18 02:54:47;;;;;;;1.52;0.65;;;;;;;2.27;70.08;100697.14;1691966;85;21050;-64
2021/12/18 02:57:16;;;;;;;2.42;0.72;;;;;;;2.23;69.93;100696.56;1689837;83;21085;-64
2021/12/18 02:59:49;;;;;;;1.10;0.70;;;;;;;2.24;69.99;100702.33;1689371;83;20998;-64
2021/12/18 03:02:19;;;;;;;2.05;0.90;;;;;;;2.22;69.98;100713.27;1689354;83;21498;-63
2021/12/18 03:04:48;;;;;;;1.30;0.80;;;;;;;2.19;69.79;100709.49;1689351;83;21034;-63
2021/12/18 03:07:20;;;;;;;2.08;1.20;;;;;;;2.18;69.95;100715.03;1683012;85;21659;-63
2021/12/18 03:26:06;;;;;;;0.78;0.57;;;;;;;2.15;71.06;100729.67;1660311;85;21576;-64
2021/12/18 03:28:35;;;;;;;2.27;0.70;;;;;;;2.12;71.17;100727.25;1699514;84;21032;-64
2021/12/18 03:31:07;;;;;;;0.88;0.57;;;;;;;2.10;71.19;100741.89;1665381;86;21032;-63
2021/12/18 03:33:36;;;;;;;1.12;0.70;;;;;;;2.06;71.48;100748.05;1665228;85;21103;-63
2021/12/18 03:36:07;;;;;;;0.57;0.55;;;;;;;2.04;71.92;100753.23;1689455;83;21180;-64
2021/12/18 03:38:36;;;;;;;1.30;0.70;;;;;;;2.04;72.11;100750.53;1689402;83;21089;-64
2021/12/18 03:41:05;;;;;;;2.20;0.65;;;;;;;2.06;72.20;100754.81;1689575;85;21074;-62
2021/12/18 03:43:34;;;;;;;1.02;0.60;;;;;;;2.05;72.30;100753.10;1689557;85;21474;-63
2021/12/18 03:46:04;;;;;;;1.75;0.80;;;;;;;2.04;72.44;100755.45;1689373;84;21559;-63
2021/12/18 03:48:34;;;;;;;1.02;0.62;;;;;;;2.00;72.87;100757.20;1689341;85;21531;-64
2021/12/18 03:51:03;;;;;;;1.17;0.70;;;;;;;2.00;73.28;100763.95;1689059;83;21625;-64
2021/12/18 03:53:32;;;;;;;1.60;0.70;;;;;;;1.97;73.83;100768.27;1689339;85;21041;-66
2021/12/18 03:56:02;;;;;;;2.87;0.95;;;;;;;1.92;74.41;100763.23;1689873;84;21048;-64
2021/12/18 03:58:31;;;;;;;1.50;0.80;;;;;;;1.92;74.64;100774.05;1692501;85;21180;-64
2021/12/18 04:01:00;;;;;;;1.07;0.80;;;;;;;1.92;74.83;100774.05;1692471;85;21067;-63
2021/12/18 04:03:29;;;;;;;1.62;0.78;;;;;;;1.88;75.50;100775.30;1692656;85;21031;-63
2021/12/18 04:05:59;;;;;;;1.02;0.78;;;;;;;1.83;75.99;100769.44;1691518;85;21289;-65
2021/12/18 04:08:29;;;;;;;1.32;0.88;;;;;;;1.79;76.58;100776.95;1685382;84;21143;-64
2021/12/18 04:10:59;;;;;;;1.52;0.90;;;;;;;1.76;76.96;100778.57;1685623;85;21529;-66
2021/12/18 04:13:30;;;;;;;0.70;0.60;;;;;;;1.73;77.26;100771.22;1685567;84;21576;-63
2021/12/18 04:15:59;;;;;;;2.10;1.07;;;;;;;1.72;77.61;100780.31;1685375;85;21486;-64
2021/12/18 04:18:28;;;;;;;1.47;0.70;;;;;;;1.74;77.89;100780.55;1685451;84;21609;-64
2021/12/18 04:20:57;;;;;;;1.90;0.72;;;;;;;1.76;78.22;100786.67;1689837;85;21487;-64
2021/12/18 04:23:26;;;;;;;2.20;0.90;;;;;;;1.75;78.33;100784.10;1692553;84;21122;-64
2021/12/18 04:25:56;;;;;;;1.22;0.85;;;;;;;1.75;78.44;100783.61;1669980;86;21671;-64
2021/12/18 04:28:24;;;;;;;0.78;0.70;;;;;;;1.73;78.25;100789.64;1651495;87;21078;-63
2021/12/18 04:30:54;;;;;;;3.02;0.80;;;;;;;1.69;78.16;100788.68;1651304;87;21513;-63
2021/12/18 04:33:23;;;;;;;0.98;0.70;;;;;;;1.67;77.91;100787.95;1685369;85;21104;-62
2021/12/18 04:35:52;;;;;;;0.90;0.65;;;;;;;1.70;77.66;100795.80;1685754;85;21068;-65
2021/12/18 04:38:20;;;;;;;1.82;0.88;;;;;;;1.74;77.24;100784.59;1685333;84;21074;-66
2021/12/18 04:40:51;;;;;;;1.47;0.82;;;;;;;1.76;76.47;100791.22;1685345;84;21004;-63
2021/12/18 04:43:20;;;;;;;0.78;0.60;;;;;;;1.76;75.78;100792.08;1685326;85;21186;-63
2021/12/18 04:45:49;;;;;;;1.15;0.80;;;;;;;1.77;75.40;100794.28;1686652;85;21063;-64
2021/12/18 04:48:19;;;;;;;0.60;0.50;;;;;;;1.78;74.72;100802.75;1689437;85;21509;-63
2021/12/18 04:50:48;;;;;;;0.72;0.40;;;;;;;1.75;73.13;100784.95;1656225;87;21507;-63
2021/12/18 04:53:18;;;;;;;0.55;0.50;;;;;;;1.75;72.91;100797.11;1656357;87;21020;-63
2021/12/18 04:55:47;;;;;;;1.70;0.80;;;;;;;1.78;72.58;100786.05;1656345;87;21083;-63
2021/12/18 04:58:16;;;;;;;0.85;0.40;;;;;;;1.79;71.30;100798.56;1642412;86;21680;-63
2021/12/18 05:00:47;;;;;;;0.90;0.57;;;;;;;1.75;71.10;100797.11;1646753;87;21237;-63
2021/12/18 05:03:17;;;;;;;0.37;0.35;;;;;;;1.76;70.75;100806.93;1631757;87;21104;-63
2021/12/18 05:05:47;;;;;;;1.10;0.30;;;;;;;1.75;70.19;100807.06;1686060;85;21027;-64
2021/12/18 05:08:17;;;;;;;0.93;0.45;;;;;;;1.73;70.28;100813.95;1670557;84;21058;-63
2021/12/18 05:10:46;;;;;;;0.40;0.40;;;;;;;1.74;70.37;100809.41;1670427;86;21188;-63
2021/12/18 05:13:14;;;;;;;0.45;0.40;;;;;;;1.75;70.38;100822.78;1670322;86;21078;-64
2021/12/18 05:15:44;;;;;;;2.70;0.93;;;;;;;1.77;70.57;100823.50;1670660;84;21233;-64
2021/12/18 05:18:13;;;;;;;0.65;0.40;;;;;;;1.77;70.50;100831.61;1670609;85;21071;-63
2021/12/18 05:20:43;;;;;;;2.02;0.47;;;;;;;1.72;70.54;100818.12;1670486;86;21609;-63
2021/12/18 05:23:11;;;;;;;2.20;0.70;;;;;;;1.69;70.86;100830.55;1670421;86;21062;-64
2021/12/18 05:25:42;;;;;;;0.95;0.60;;;;;;;1.71;71.22;100828.57;1678192;85;21065;-62
2021/12/18 05:28:11;;;;;;;1.98;0.80;;;;;;;1.73;71.41;100834.70;1691985;85;21073;-63
2021/12/18 05:30:40;;;;;;;1.37;0.82;;;;;;;1.72;71.83;100838.39;1692011;85;21124;-64
2021/12/18 05:33:10;;;;;;;2.20;1.10;;;;;;;1.72;72.40;100841.09;1691995;84;21018;-64
2021/12/18 05:35:40;;;;;;;1.72;0.90;;;;;;;1.72;72.88;100850.55;1692310;85;21450;-63
2021/12/18 05:38:08;;;;;;;1.35;0.80;;;;;;;1.73;73.26;100858.52;1691896;84;21638;-64
2021/12/18 05:40:38;;;;;;;1.72;0.85;;;;;;;1.75;73.45;100854.34;1692121;85;21188;-64
2021/12/18 05:43:08;;;;;;;1.62;0.85;;;;;;;1.72;73.51;100866.26;1704236;84;21136;-65
2021/12/18 05:45:37;;;;;;;1.62;0.95;;;;;;;1.69;73.70;100872.41;1691808;84;21145;-63
2021/12/18 05:48:06;;;;;;;2.15;0.93;;;;;;;1.70;73.93;100870.94;1675648;84;21157;-62
2021/12/18 05:50:35;;;;;;;1.52;0.85;;;;;;;1.74;74.07;100880.49;1676921;84;21189;-62
2021/12/18 05:53:03;;;;;;;2.62;1.50;;;;;;;1.75;74.20;100874.59;1643181;87;21178;-63
2021/12/18 05:55:33;;;;;;;3.37;1.67;;;;;;;1.75;74.32;100874.59;1643471;87;21075;-63
2021/12/18 05:58:02;;;;;;;2.02;1.12;;;;;;;1.74;74.65;100891.30;1643347;86;21126;-63
2021/12/18 06:00:31;;;;;;;3.15;1.75;;;;;;;1.70;74.43;100872.77;1658710;85;21078;-63
2021/12/18 06:03:00;;;;;;;3.62;1.10;;;;;;;1.66;74.61;100879.42;1670577;86;21545;-64
2021/12/18 06:05:30;;;;;;;1.65;1.00;;;;;;;1.69;74.62;100881.37;1680988;85;21805;-63
2021/12/18 06:07:59;;;;;;;1.57;0.90;;;;;;;1.71;74.44;100878.55;1692183;85;21065;-63
2021/12/18 06:10:29;;;;;;;1.15;0.80;;;;;;;1.72;74.17;100885.66;1692200;84;21594;-63
2021/12/18 06:13:02;;;;;;;1.75;1.17;;;;;;;1.73;74.13;100890.08;1691785;85;21079;-67
2021/12/18 06:15:31;;;;;;;2.35;1.40;;;;;;;1.72;74.32;100889.71;1704093;84;21164;-65
2021/12/18 06:18:00;;;;;;;2.45;1.10;;;;;;;1.69;74.68;100905.69;1704374;84;21046;-63
2021/12/18 06:20:29;;;;;;;3.30;2.25;;;;;;;1.66;74.98;100903.73;1691820;84;21054;-64
2021/12/18 06:22:58;;;;;;;2.85;1.20;;;;;;;1.62;75.52;100886.92;1643269;87;21095;-62
2021/12/18 06:25:28;;;;;;;1.02;0.80;;;;;;;1.63;76.06;100891.84;1671699;85;21045;-63
2021/12/18 06:27:56;;;;;;;1.45;1.00;;;;;;;1.57;75.98;100887.80;1692046;85;21042;-62
2021/12/18 06:30:26;;;;;;;2.83;0.62;;;;;;;1.54;75.66;100898.37;1704306;84;21171;-63
2021/12/18 06:32:55;;;;;;;4.55;0.80;;;;;;;1.54;75.39;100894.32;1692015;85;21164;-66
2021/12/18 06:35:26;;;;;;;1.70;0.80;;;;;;;1.54;75.16;100891.62;1704210;84;21156;-62
2021/12/18 06:37:56;;;;;;;0.88;0.40;;;;;;;1.56;75.09;100888.79;1692277;84;21148;-62
2021/12/18 06:40:25;;;;;;;5.97;1.05;;;;;;;1.56;74.59;100893.70;1704374;84;21590;-63
2021/12/18 06:42:54;;;;;;;2.27;0.65;;;;;;;1.55;74.13;100898.73;1704145;84;21037;-63
2021/12/18 06:45:25;;;;;;;2.83;0.62;;;;;;;1.56;74.05;100901.80;1684933;84;21058;-63
2021/12/18 06:47:53;;;;;;;3.55;0.88;;;;;;;1.57;73.43;100914.32;1675249;86;21157;-62
2021/12/18 06:50:23;;;;;;;2.65;0.90;;;;;;;1.56;72.46;100909.90;1675483;86;21482;-62
2021/12/18 06:52:52;;;;;;;3.83;0.90;;;;;;;1.59;72.55;100910.14;1675291;85;21530;-64
2021/12/18 06:55:22;;;;;;;4.35;1.10;;;;;;;1.61;72.30;100911.36;1675149;84;21093;-63
2021/12/18 06:57:51;;;;;;;2.83;0.90;;;;;;;1.61;72.27;100917.63;1672559;84;21494;-63
2021/12/18 07:00:21;;;;;;;3.17;0.60;;;;;;;1.59;72.39;100916.40;1640702;85;21114;-63
2021/12/18 07:02:51;;;;;;;4.20;0.90;;;;;;;1.57;72.51;100917.02;1610154;89;21147;-64
2021/12/18 07:05:20;;;;;;;3.25;1.07;;;;;;;1.57;72.66;100919.72;1659377;85;21682;-64
2021/12/18 07:07:50;;;;;;;1.67;0.82;;;;;;;1.58;73.01;100916.52;1665466;85;21086;-63
2021/12/18 07:10:19;;;;;;;2.55;0.70;;;;;;;1.56;73.58;100918.00;1665428;85;21217;-64
2021/12/18 07:12:48;;;;;;;1.62;0.82;;;;;;;1.52;73.93;100919.24;1665547;85;21553;-64
2021/12/18 07:15:17;;;;;;;2.05;0.93;;;;;;;1.48;74.22;100923.18;1665422;85;21592;-64
2021/12/18 07:17:47;;;;;;;2.17;0.93;;;;;;;1.49;74.65;100926.73;1637558;86;21062;-64
2021/12/18 07:20:17;;;;;;;2.72;0.80;;;;;;;1.51;74.88;100936.43;1665481;86;21050;-63
2021/12/18 07:22:48;;;;;;;1.60;1.10;;;;;;;1.48;75.30;100927.23;1637488;88;21110;-64
2021/12/18 07:25:17;;;;;;;1.27;0.78;;;;;;;1.48;75.64;100927.23;1685291;85;21162;-63
2021/12/18 07:27:47;;;;;;;2.85;0.90;;;;;;;1.48;76.27;100932.63;1689399;85;21175;-63
2021/12/18 07:30:16;;;;;;;3.10;1.02;;;;;;;1.45;76.47;100934.23;1665346;86;21535;-63
2021/12/18 07:32:46;;;;;;;2.10;0.80;;;;;;;1.43;76.88;100936.70;1665241;85;21599;-64
2021/12/18 07:35:15;;;;;;;2.67;1.00;;;;;;;1.42;77.15;100934.48;1689292;85;21058;-64
2021/12/18 07:37:44;;;;;;;4.80;0.90;;;;;;;1.42;77.35;100943.94;1689262;84;21073;-64
2021/12/18 07:40:14;;;;;;;3.70;0.93;;;;;;;1.38;77.53;100951.92;1675959;84;21634;-64
2021/12/18 07:42:42;;;;;;;1.00;0.80;;;;;;;1.35;77.71;100952.17;1665566;85;21063;-64
2021/12/18 07:45:12;;;;;;;2.92;1.00;;;;;;;1.33;77.79;100954.14;1665585;85;21229;-64
2021/12/18 07:47:42;;;;;;;5.78;0.80;;;;;;;1.34;77.93;100946.41;1665849;85;21046;-62
2021/12/18 07:50:18;;;;;;;1.60;0.80;;;;;;;1.37;77.77;100954.75;1665339;86;21221;-65
2021/12/18 07:52:41;;;;;;;1.25;0.85;;;;;;;1.30;77.99;100951.69;1664902;86;21598;-65
2021/12/18 07:55:10;;;;;;;3.22;1.00;;;;;;;1.22;78.52;100954.12;1665461;85;21051;-65
2021/12/18 07:57:40;;;;;;;1.00;0.80;;;;;;;1.15;78.94;100954.25;1666800;85;21526;-64
2021/12/18 08:00:12;;;;;;;1.95;0.90;;;;;;;1.10;79.32;100957.81;1684122;85;21088;-64
2021/12/18 08:02:41;;;;;;;1.27;0.95;;;;;;;1.09;79.48;100966.40;1691849;85;21038;-64
2021/12/18 08:05:11;;;;;;;2.65;0.95;;;;;;;1.13;79.68;100973.27;1691964;85;21497;-64
2021/12/18 08:07:40;;;;;;;2.40;1.40;;;;;;;1.17;79.81;100968.48;1691982;85;21332;-64
2021/12/18 08:10:10;;;;;;;1.85;1.00;;;;;;;1.18;79.87;100957.56;1691948;85;21105;-64
2021/12/18 08:12:39;;;;;;;4.08;1.50;;;;;;;1.21;79.79;100960.50;1692142;84;21489;-64
2021/12/18 08:15:09;;;;;;;6.80;2.98;;;;;;;1.20;79.88;100967.73;1692070;84;21093;-65
2021/12/18 08:17:38;;;;;;;6.80;3.12;;;;;;;1.26;80.06;100967.73;1691838;85;21005;-64
2021/12/18 08:20:09;;;;;;;7.60;2.90;;;;;;;1.32;80.09;100963.71;1676355;85;21166;-64
2021/12/18 08:22:37;;;;;;;2.72;1.65;;;;;;;1.36;80.03;100962.48;1670395;84;21490;-64
2021/12/18 08:25:08;;;;;;;4.83;2.62;;;;;;;1.36;80.00;100959.29;1670425;86;21113;-64
2021/12/18 08:27:38;;;;;;;3.00;1.57;;;;;;;1.40;79.95;100955.36;1670629;84;21158;-64
2021/12/18 08:30:10;;;;;;;5.03;1.80;;;;;;;1.41;79.81;100950.32;1670396;86;21369;-65
2021/12/18 08:32:40;;;;;;;5.12;1.80;;;;;;;1.40;79.77;100949.09;1670360;85;21070;-64
2021/12/18 08:35:10;;;;;;;5.40;2.67;;;;;;;1.42;79.74;100946.64;1670514;85;21113;-63
2021/12/18 08:37:39;;;;;;;6.30;2.15;;;;;;;1.43;79.95;100936.70;1670367;84;21587;-65
2021/12/18 08:40:09;;;;;;;3.45;1.95;;;;;;;1.43;79.91;100934.86;1684862;84;21527;-63
2021/12/18 08:42:38;;;;;;;6.75;2.22;;;;;;;1.44;79.97;100924.91;1691947;85;21464;-64
2021/12/18 08:45:07;;;;;;;11.03;3.70;;;;;;;1.45;80.02;100933.38;1692197;85;21084;-62
2021/12/18 08:47:36;;;;;;;7.67;3.67;;;;;;;1.47;80.15;100928.22;1666926;85;21156;-63
2021/12/18 08:50:07;;;;;;;6.45;3.12;;;;;;;1.54;80.11;100932.13;1691857;85;21042;-63
2021/12/18 08:52:38;;;;;;;7.72;3.52;;;;;;;1.54;79.68;100927.22;1613264;88;21072;-65
2021/12/18 08:55:09;;;;;;;7.97;3.20;;;;;;;1.56;79.80;100926.59;1595569;89;21097;-64
2021/12/18 08:57:38;;;;;;;13.72;4.20;;;;;;;1.56;79.71;100924.76;1642587;86;21205;-65
2021/12/18 09:00:11;;;;;;;16.50;5.30;;;;;;;1.62;79.91;100923.88;1642252;87;21031;-66
2021/12/18 09:02:40;;;;;;;14.73;6.15;;;;;;;1.75;80.73;100924.57;1611705;89;21666;-67
2021/12/18 09:05:09;;;;;;;9.75;5.08;;;;;;;1.89;80.51;100921.56;1633898;88;21629;-68
2021/12/18 09:07:38;;;;;;;14.83;6.42;;;;;;;1.96;80.33;100918.75;1611737;89;21541;-66
2021/12/18 09:10:08;;;;;;;16.02;6.10;;;;;;;1.96;79.48;100923.30;1646743;85;21097;-67
2021/12/18 09:12:37;;;;;;;10.45;4.15;;;;;;;1.94;79.50;100922.04;1691879;85;21085;-66
2021/12/18 09:15:07;;;;;;;8.40;3.77;;;;;;;1.94;79.24;100923.88;1692129;85;21191;-65
2021/12/18 09:17:36;;;;;;;9.50;3.98;;;;;;;1.88;79.10;100933.36;1692182;84;21033;-66
2021/12/18 09:20:07;;;;;;;8.05;3.30;;;;;;;1.93;79.38;100920.81;1704502;84;21530;-65
2021/12/18 09:22:36;;;;;;;9.38;4.40;;;;;;;1.94;78.93;100927.94;1694038;84;21496;-65
2021/12/18 09:25:07;;;;;;;10.10;4.20;;;;;;;1.87;78.79;100925.75;1617458;89;21474;-65
2021/12/18 09:27:36;;;;;;;11.33;6.15;;;;;;;1.84;78.79;100930.55;1646535;87;21093;-65
2021/12/18 09:30:10;;;;;;;7.33;3.20;;;;;;;1.81;79.00;100918.66;1616927;88;21050;-65
2021/12/18 09:32:39;;;;;;;9.00;4.10;;;;;;;1.78;78.93;100919.77;1646680;87;21066;-65
2021/12/18 09:35:10;;;;;;;12.95;5.17;;;;;;;1.75;79.32;100927.27;1642864;87;21101;-64
2021/12/18 09:37:39;;;;;;;11.48;5.10;;;;;;;1.73;79.57;100928.75;1675406;84;21504;-66
2021/12/18 09:40:12;;;;;;;6.17;2.95;;;;;;;1.73;79.81;100925.19;1675595;84;21462;-64
2021/12/18 09:42:43;;;;;;;7.10;3.22;;;;;;;1.74;79.67;100930.96;1675135;84;21173;-65
2021/12/18 09:45:12;;;;;;;3.10;1.55;;;;;;;1.71;79.59;100925.32;1675200;85;21177;-66
2021/12/18 09:47:42;;;;;;;6.03;2.35;;;;;;;1.71;79.61;100921.27;1677401;84;21098;-64
2021/12/18 09:50:11;;;;;;;7.08;2.80;;;;;;;1.73;79.83;100915.73;1647254;86;21086;-65
2021/12/18 09:52:40;;;;;;;7.87;2.67;;;;;;;1.74;80.00;100916.11;1675402;84;21165;-65
2021/12/18 09:55:10;;;;;;;5.95;2.20;;;;;;;1.73;79.99;100913.03;1675201;85;21090;-65
2021/12/18 09:57:39;;;;;;;5.30;2.40;;;;;;;1.73;80.07;100914.39;1674950;84;21173;-65
2021/12/18 10:00:15;;;;;;;7.08;2.12;;;;;;;1.72;80.05;100914.02;1667808;84;21471;-62
2021/12/18 10:02:45;;;;;;;8.03;3.77;;;;;;;1.72;80.13;100908.13;1646578;86;21516;-66
2021/12/18 10:05:28;;;;;;;10.65;4.67;;;;;;;1.78;80.35;100895.95;1667853;84;21070;-64
2021/12/18 10:08:14;;;;;;;10.28;4.17;;;;;;;1.77;80.44;100893.74;1665015;84;21243;-63
2021/12/18 10:11:08;;;;;;;7.17;3.25;;;;;;;1.75;80.42;100890.80;1698938;83;21473;-63
2021/12/18 10:14:02;;;;;;;7.55;3.17;;;;;;;1.77;80.50;100896.45;1699418;83;21064;-65
2021/12/18 10:16:32;;;;;;;7.40;3.60;;;;;;;1.70;79.35;100890.34;1688551;83;21054;-68
2021/12/18 10:19:03;;;;;;;5.97;3.17;;;;;;;1.65;79.65;100884.46;1640713;87;21114;-63
2021/12/18 10:21:33;;;;;;;6.97;3.47;;;;;;;1.64;79.55;100874.15;1640788;87;21498;-62
2021/12/18 10:24:14;;;;;;;8.23;4.05;;;;;;;1.63;79.66;100876.48;1640691;87;21498;-66
2021/12/18 10:26:44;;;;;;;8.28;3.60;;;;;;;1.65;79.77;100869.61;1640667;87;21564;-66
2021/12/18 10:29:36;;;;;;;7.75;2.92;;;;;;;1.68;79.67;100861.25;1652664;84;21067;-64
2021/12/18 10:32:11;;;;;;;5.33;2.72;;;;;;;1.72;79.71;100861.35;1677242;85;21552;-63
2021/12/18 10:34:43;;;;;;;6.50;1.98;;;;;;;1.76;79.58;100859.61;1677613;84;21204;-64
2021/12/18 10:37:22;;;;;;;4.15;2.35;;;;;;;1.79;77.88;100853.09;1650411;85;21474;-65
2021/12/18 10:40:10;;;;;;;4.87;2.90;;;;;;;1.77;78.06;100853.71;1677221;84;21186;-64
2021/12/18 10:42:42;;;;;;;12.10;4.35;;;;;;;1.82;78.18;100850.13;1677091;85;21061;-64
2021/12/18 10:45:25;;;;;;;21.40;11.22;;;;;;;1.82;77.83;100844.72;1677437;85;21062;-65
2021/12/18 10:48:01;;;;;;;7.90;3.10;;;;;;;1.80;77.36;100844.00;1678751;84;21126;-65
2021/12/18 10:50:44;;;;;;;6.20;3.00;;;;;;;1.78;77.04;100850.02;1677151;85;21141;-65
2021/12/18 10:53:22;;;;;;;5.35;2.30;;;;;;;1.76;76.94;100852.00;1677391;85;21121;-65
2021/12/18 10:55:56;;;;;;;6.85;2.98;;;;;;;1.75;76.83;100850.28;1677159;84;21517;-65
2021/12/18 10:58:33;;;;;;;10.95;3.77;;;;;;;1.74;76.45;100851.27;1677086;84;21216;-63
2021/12/18 11:01:08;;;;;;;6.50;2.80;;;;;;;1.75;76.57;100854.34;1672795;85;21547;-65
2021/12/18 11:03:47;;;;;;;9.05;3.08;;;;;;;1.78;75.78;100840.56;1677200;84;21102;-66
2021/12/18 11:06:24;;;;;;;5.50;2.40;;;;;;;1.77;75.52;100845.12;1677121;84;21105;-64
2021/12/18 11:09:05;;;;;;;7.90;2.80;;;;;;;1.76;75.55;100838.49;1677439;84;21066;-64
2021/12/18 11:14:22;;;;;;;7.60;3.30;;;;;;;1.79;75.15;100852.59;1652240;85;21725;-65
2021/12/18 11:16:59;;;;;;;10.95;4.12;;;;;;;1.80;75.01;100851.61;1677248;84;21090;-64
2021/12/18 11:19:30;;;;;;;13.85;4.28;;;;;;;1.82;74.80;100848.28;1679841;84;21566;-64
2021/12/18 11:22:08;;;;;;;7.45;3.60;;;;;;;1.82;74.10;100846.93;1691227;84;21097;-66
2021/12/18 11:24:44;;;;;;;6.22;2.58;;;;;;;1.78;72.74;100844.13;1677478;84;21066;-67
2021/12/18 11:27:16;;;;;;;6.40;2.58;;;;;;;1.71;72.08;100845.64;1654513;86;21116;-66
2021/12/18 11:29:51;;;;;;;6.15;2.55;;;;;;;1.67;72.14;100847.37;1670988;85;21117;-65
2021/12/18 11:32:26;;;;;;;4.03;1.35;;;;;;;1.69;72.31;100840.00;1670143;85;21520;-65
2021/12/18 11:34:58;;;;;;;2.30;1.20;;;;;;;1.73;72.19;100836.05;1665452;85;21059;-66
2021/12/18 11:37:26;;;;;;;1.82;1.00;;;;;;;1.76;71.49;100835.30;1677619;85;21210;-65
2021/12/18 11:39:57;;;;;;;5.70;1.40;;;;;;;1.80;71.28;100831.84;1645389;86;21203;-65
2021/12/18 11:42:30;;;;;;;1.47;0.90;;;;;;;1.83;70.64;100824.82;1664543;85;21545;-64
2021/12/18 11:45:01;;;;;;;1.90;1.20;;;;;;;1.86;70.88;100817.80;1664927;86;21085;-64
2021/12/18 11:47:45;;;;;;;3.65;1.20;;;;;;;1.91;70.71;100813.72;1664584;86;21555;-64
2021/12/18 11:50:27;;;;;;;1.47;1.10;;;;;;;1.94;70.39;100822.05;1664247;86;21609;-64
2021/12/18 11:53:16;;;;;;;2.15;1.10;;;;;;;1.95;70.02;100821.56;1672820;85;21113;-65
2021/12/18 11:55:58;;;;;;;3.30;1.15;;;;;;;1.94;70.02;100826.11;1678590;83;21054;-65
2021/12/18 11:58:32;;;;;;;4.85;1.30;;;;;;;1.98;69.90;100823.54;1685843;83;21137;-64
2021/12/18 12:01:06;;;;;;;3.72;1.95;;;;;;;1.99;70.82;100821.69;1646220;86;21227;-66
2021/12/18 12:03:40;;;;;;;3.20;1.37;;;;;;;2.05;70.99;100810.35;1613650;89;21229;-60
2021/12/18 12:06:31;;;;;;;6.03;2.90;;;;;;;2.07;70.62;100815.98;1645667;87;21051;-60
2021/12/18 12:09:33;;;;;;;5.40;1.90;;;;;;;2.07;70.45;100815.98;1620549;87;21078;-59
2021/12/18 12:12:09;;;;;;;3.20;1.10;;;;;;;2.04;70.32;100823.01;1698484;84;21595;-60
2021/12/18 12:14:41;;;;;;;2.02;0.93;;;;;;;1.99;70.45;100818.50;1698778;83;21053;-61
2021/12/18 12:17:27;;;;;;;2.05;1.42;;;;;;;2.00;70.43;100811.24;1691742;84;21069;-60
2021/12/18 12:20:01;;;;;;;3.40;1.80;;;;;;;1.98;70.71;100813.22;1672418;85;21054;-59
2021/12/18 12:22:42;;;;;;;3.52;1.67;;;;;;;1.96;70.75;100816.06;1674118;86;21432;-59
2021/12/18 12:25:14;;;;;;;4.60;1.95;;;;;;;1.94;70.42;100813.95;1674777;84;21484;-60
2021/12/18 12:27:51;;;;;;;8.58;3.55;;;;;;;1.87;70.59;100816.82;1579328;89;21069;-60
2021/12/18 12:30:34;;;;;;;9.68;4.22;;;;;;;1.84;70.88;100819.78;1537478;91;21081;-60
2021/12/18 12:33:06;;;;;;;8.98;3.80;;;;;;;1.85;70.95;100830.95;1590895;89;21056;-61
2021/12/18 12:36:09;;;;;;;8.93;4.08;;;;;;;1.82;71.32;100828.02;1590852;90;21088;-59